Bd-6 — AEIN — position and weather

sailwx.info

Track history (hours):
 
Tides and Currents Weather Stations Pressure Air Temp Water Temp Dewpoint Dewpoint Depression Visibility Wind Speed Wind Dir Waves Ship Positions

Bd-6

Last reported at 2017-Sep-18 19:12 UTC. Time now 2017-Sep-19 22:20 UTC.
Position N 39°16' W 076°35'.

Length 12 m.

Type: Military. MMSI: 369970466.

Date/timePositionNaut miles runAvg speedWind from/ knotsBaromVisibWave heightAir tempDewpointWater temp
2017-Sep-18 19:12N 39°16' W 076°35'0 0.6
2017-Sep-18 19:00N 39°16' W 076°35'2 1.7
2017-Sep-18 18:06N 39°15' W 076°36'0 1.6
2017-Sep-18 17:59N 39°15' W 076°36'3 5.3
2017-Sep-18 17:28N 39°14' W 076°33'2 1.6
2017-Sep-18 15:56N 39°16' W 076°35'1 2.9
2017-Sep-18 15:29N 39°15' W 076°36'1 2.5
2017-Sep-18 14:59N 39°16' W 076°35'0 0.9
2017-Sep-18 14:30N 39°16' W 076°35'1 1.6
2017-Sep-18 13:52N 39°15' W 076°35'0 0.6
2017-Sep-18 13:25N 39°15' W 076°36'0 0.1
2017-Sep-18 12:59N 39°15' W 076°36'0 0.0
2017-Sep-18 12:30N 39°15' W 076°36'1 1.1
2017-Sep-18 12:00N 39°15' W 076°35'  
2017-Sep-13 14:21N 39°16' W 076°35'3 1.5
2017-Sep-13 12:32N 39°14' W 076°34'  
Track history (hours):
 
Tides and Currents Weather Stations Pressure Air Temp Water Temp Dewpoint Dewpoint Depression Visibility Wind Speed Wind Dir Waves Ship Positions

Bd-6

Last reported at 2017-Sep-18 19:12 UTC. Time now 2017-Sep-19 22:20 UTC.
Position N 39°16' W 076°35'.

Length 12 m.

Type: Military. MMSI: 369970466.

Date/timePositionNaut miles runAvg speedWind from/ knotsBaromVisibWave heightAir tempDewpointWater temp
2017-Sep-18 19:12N 39°16' W 076°35'0 0.6
2017-Sep-18 19:00N 39°16' W 076°35'2 1.7
2017-Sep-18 18:06N 39°15' W 076°36'0 1.6
2017-Sep-18 17:59N 39°15' W 076°36'3 5.3
2017-Sep-18 17:28N 39°14' W 076°33'2 1.6
2017-Sep-18 15:56N 39°16' W 076°35'1 2.9
2017-Sep-18 15:29N 39°15' W 076°36'1 2.5
2017-Sep-18 14:59N 39°16' W 076°35'0 0.9
2017-Sep-18 14:30N 39°16' W 076°35'1 1.6
2017-Sep-18 13:52N 39°15' W 076°35'0 0.6
2017-Sep-18 13:25N 39°15' W 076°36'0 0.1
2017-Sep-18 12:59N 39°15' W 076°36'0 0.0
2017-Sep-18 12:30N 39°15' W 076°36'1 1.1
2017-Sep-18 12:00N 39°15' W 076°35'  
2017-Sep-13 14:21N 39°16' W 076°35'3 1.5
2017-Sep-13 12:32N 39°14' W 076°34'  

Dump ship's entire track history